createdAt,value
2018-08-08T00:01:49.371Z,5.50
2018-08-08T00:04:16.915Z,5.50
2018-08-08T00:06:44.868Z,5.23
2018-08-08T00:09:12.967Z,5.37
2018-08-08T00:11:40.882Z,5.63
2018-08-08T00:14:09.807Z,5.20
2018-08-08T00:16:37.463Z,6.23
2018-08-08T00:19:05.475Z,6.00
2018-08-08T00:21:33.668Z,6.40
2018-08-08T00:24:01.248Z,6.00
2018-08-08T00:26:28.832Z,6.27
2018-08-08T00:28:56.685Z,6.00
2018-08-08T00:31:25.420Z,5.87
2018-08-08T00:33:52.959Z,5.80
2018-08-08T00:36:20.476Z,6.30
2018-08-08T00:38:48.136Z,5.90
2018-08-08T00:41:15.635Z,6.33
2018-08-08T00:43:43.756Z,5.87
2018-08-08T00:46:11.429Z,5.90
2018-08-08T00:48:39.397Z,6.33
2018-08-08T00:51:07.252Z,5.53
2018-08-08T00:53:34.791Z,6.00
2018-08-08T00:56:02.388Z,5.70
2018-08-08T00:58:30.460Z,5.80
2018-08-08T01:00:58.556Z,5.70
2018-08-08T01:03:26.740Z,5.93
2018-08-08T01:05:54.284Z,5.73
2018-08-08T01:08:21.887Z,6.50
2018-08-08T01:10:49.455Z,6.33
2018-08-08T01:13:17.700Z,6.63
2018-08-08T01:15:45.620Z,5.60
2018-08-08T01:18:13.786Z,5.57
2018-08-08T01:20:41.359Z,5.60
2018-08-08T01:23:09.300Z,6.07
2018-08-08T01:25:37.292Z,5.87
2018-08-08T01:28:05.281Z,6.37
2018-08-08T01:30:33.419Z,5.63
2018-08-08T01:33:00.949Z,6.33
2018-08-08T01:35:28.495Z,6.17
2018-08-08T01:37:56.095Z,6.00
2018-08-08T01:40:25.093Z,6.00
2018-08-08T01:42:53.594Z,6.40
2018-08-08T01:45:21.116Z,5.90
2018-08-08T01:47:49.031Z,5.90
2018-08-08T01:50:16.955Z,5.90
2018-08-08T01:52:45.450Z,6.00
2018-08-08T01:55:14.206Z,6.30
2018-08-08T01:57:42.198Z,6.20
2018-08-08T02:00:11.580Z,5.80
2018-08-08T02:02:39.924Z,6.13
2018-08-08T02:05:08.068Z,6.10
2018-08-08T02:07:36.077Z,6.73
2018-08-08T02:10:05.303Z,6.73
2018-08-08T02:12:32.940Z,6.60
2018-08-08T02:15:00.816Z,6.70
2018-08-08T02:17:29.024Z,6.97
2018-08-08T02:19:57.602Z,6.80
2018-08-08T02:22:26.692Z,6.10
2018-08-08T02:24:54.180Z,6.17
2018-08-08T02:27:21.704Z,6.37
2018-08-08T02:29:49.270Z,5.50
2018-08-08T02:32:17.374Z,6.03
2018-08-08T02:34:45.018Z,7.50
2018-08-08T02:37:13.474Z,6.93
2018-08-08T02:39:41.390Z,6.70
2018-08-08T02:42:08.942Z,7.07
2018-08-08T02:44:36.891Z,6.67
2018-08-08T02:47:04.494Z,6.70
2018-08-08T02:49:32.424Z,6.73
2018-08-08T02:52:00.831Z,6.37
2018-08-08T02:54:28.873Z,6.83
2018-08-08T02:56:56.411Z,6.37
2018-08-08T02:59:23.931Z,6.67
2018-08-08T03:01:51.906Z,7.03
2018-08-08T03:04:19.458Z,8.47
2018-08-08T03:06:47.014Z,7.00
2018-08-08T03:09:14.675Z,7.20
2018-08-08T03:11:42.205Z,6.70
2018-08-08T03:14:10.356Z,7.40
2018-08-08T03:16:38.024Z,6.80
2018-08-08T03:19:05.902Z,6.30
2018-08-08T03:21:34.075Z,6.70
2018-08-08T03:24:01.969Z,7.10
2018-08-08T03:26:29.505Z,6.60
2018-08-08T03:28:57.036Z,6.70
2018-08-08T03:31:24.624Z,7.00
2018-08-08T03:33:52.173Z,6.90
2018-08-08T03:36:20.232Z,6.93
2018-08-08T03:38:47.737Z,6.60
2018-08-08T03:41:15.269Z,7.23
2018-08-08T03:43:43.174Z,6.60
2018-08-08T03:46:10.719Z,6.50
2018-08-08T03:48:38.668Z,6.43
2018-08-08T03:51:06.495Z,7.43
2018-08-08T03:53:34.032Z,7.00
2018-08-08T03:56:01.540Z,6.17
2018-08-08T03:58:29.087Z,7.80
2018-08-08T04:00:56.646Z,7.23
2018-08-08T04:03:25.091Z,6.53
2018-08-08T04:05:52.636Z,6.90
2018-08-08T04:08:20.156Z,6.63
2018-08-08T04:10:48.300Z,7.00
2018-08-08T04:13:15.811Z,7.30
2018-08-08T04:15:43.862Z,7.07
2018-08-08T04:18:11.938Z,6.53
2018-08-08T04:20:40.236Z,7.00
2018-08-08T04:23:08.415Z,7.67
2018-08-08T04:25:36.020Z,7.40
2018-08-08T04:28:03.599Z,7.13
2018-08-08T04:30:31.900Z,7.37
2018-08-08T04:32:59.826Z,7.73
2018-08-08T04:35:27.447Z,6.93
2018-08-08T04:37:55.000Z,7.97
2018-08-08T04:40:22.552Z,7.17
2018-08-08T04:42:51.271Z,7.47
2018-08-08T04:45:19.559Z,7.50
2018-08-08T04:47:47.819Z,7.73
2018-08-08T04:50:16.351Z,7.63
2018-08-08T04:52:44.684Z,7.53
2018-08-08T04:55:13.627Z,7.10
2018-08-08T04:57:41.511Z,7.53
2018-08-08T05:00:11.984Z,7.87
2018-08-08T05:02:40.396Z,6.80
2018-08-08T05:05:07.928Z,6.93
2018-08-08T05:07:36.276Z,6.97
2018-08-08T05:10:05.431Z,7.20
2018-08-08T05:12:33.013Z,7.33
2018-08-08T05:15:01.888Z,7.83
2018-08-08T05:17:29.853Z,7.93
2018-08-08T05:19:57.858Z,7.87
2018-08-08T05:22:25.924Z,7.73
2018-08-08T05:24:53.520Z,8.43
2018-08-08T05:27:21.072Z,7.60
2018-08-08T05:29:48.640Z,7.30
2018-08-08T05:32:16.919Z,7.20
2018-08-08T05:34:44.468Z,7.67
2018-08-08T05:37:12.104Z,8.00
2018-08-08T05:39:40.229Z,8.20
2018-08-08T05:42:07.810Z,8.67
2018-08-08T05:44:35.842Z,8.30
2018-08-08T05:47:03.997Z,7.80
2018-08-08T05:49:32.015Z,7.20
2018-08-08T05:52:00.024Z,7.37
2018-08-08T05:54:27.566Z,7.30
2018-08-08T05:56:55.128Z,8.53
2018-08-08T05:59:23.091Z,7.00
2018-08-08T06:01:51.294Z,7.00
2018-08-08T06:04:19.827Z,7.30
2018-08-08T06:06:47.802Z,8.10
2018-08-08T06:09:15.809Z,7.00
2018-08-08T06:11:43.324Z,7.60
2018-08-08T06:14:11.300Z,8.30
2018-08-08T06:16:39.893Z,7.20
2018-08-08T06:19:07.962Z,8.10
2018-08-08T06:21:35.879Z,7.63
2018-08-08T06:24:03.490Z,6.93
2018-08-08T06:26:31.051Z,7.03
2018-08-08T06:28:58.998Z,8.03
2018-08-08T06:31:26.547Z,7.20
2018-08-08T06:33:54.759Z,7.20
2018-08-08T06:36:22.616Z,8.60
2018-08-08T06:38:51.067Z,8.10
2018-08-08T06:41:18.896Z,7.10
2018-08-08T06:43:47.031Z,8.47
2018-08-08T06:46:14.560Z,8.40
2018-08-08T06:48:43.334Z,7.90
2018-08-08T06:51:11.320Z,7.50
2018-08-08T06:53:38.848Z,7.07
2018-08-08T06:56:06.844Z,7.67
2018-08-08T06:58:35.224Z,7.60
2018-08-08T07:01:02.873Z,8.03
2018-08-08T07:03:30.820Z,7.80
2018-08-08T07:05:58.820Z,8.60
2018-08-08T07:08:26.314Z,6.87
2018-08-08T07:10:54.306Z,8.30
2018-08-08T07:13:22.855Z,7.53
2018-08-08T07:15:50.954Z,7.47
2018-08-08T07:18:18.854Z,7.10
2018-08-08T07:20:46.436Z,8.23
2018-08-08T07:23:14.282Z,8.27
2018-08-08T07:25:43.254Z,7.53
2018-08-08T07:28:10.884Z,6.67
2018-08-08T07:30:38.408Z,8.30
2018-08-08T07:33:07.442Z,7.10
2018-08-08T07:35:35.412Z,7.27
2018-08-08T07:38:03.656Z,6.93
2018-08-08T07:40:31.642Z,8.50
2018-08-08T07:42:59.498Z,7.17
2018-08-08T07:45:27.895Z,6.50
2018-08-08T07:47:56.088Z,7.57
2018-08-08T07:50:24.026Z,7.20
2018-08-08T07:52:52.133Z,7.70
2018-08-08T07:55:21.316Z,7.10
2018-08-08T07:57:48.885Z,6.50
2018-08-08T08:00:19.501Z,7.50
2018-08-08T08:02:47.522Z,7.50
2018-08-08T08:05:15.670Z,6.57
2018-08-08T08:07:43.189Z,7.23
2018-08-08T08:10:11.256Z,6.87
2018-08-08T08:12:39.420Z,5.60
2018-08-08T08:15:09.349Z,5.97
2018-08-08T08:17:36.917Z,6.07
2018-08-08T08:20:07.539Z,6.83
2018-08-08T08:22:35.781Z,6.77
2018-08-08T08:25:04.591Z,7.13
2018-08-08T08:27:32.452Z,5.97
2018-08-08T08:30:00.364Z,7.40
2018-08-08T08:32:28.466Z,7.37
2018-08-08T08:34:55.947Z,6.33
2018-08-08T08:37:23.840Z,7.10
2018-08-08T08:39:51.715Z,7.17
2018-08-08T08:42:20.166Z,5.60
2018-08-08T08:44:48.132Z,6.60
2018-08-08T08:47:16.038Z,5.90
2018-08-08T08:49:43.974Z,7.20
2018-08-08T08:52:11.863Z,7.83
2018-08-08T08:54:39.563Z,7.53
2018-08-08T08:57:07.062Z,7.73
2018-08-08T08:59:34.630Z,8.17
2018-08-08T09:02:02.156Z,8.40
2018-08-08T09:04:30.710Z,7.97
2018-08-08T09:06:59.094Z,8.00
2018-08-08T09:09:26.694Z,7.40
2018-08-08T09:11:54.256Z,7.63
2018-08-08T09:14:22.426Z,7.97
2018-08-08T09:16:49.953Z,8.03
2018-08-08T09:19:18.227Z,7.27
2018-08-08T09:21:47.128Z,7.50
2018-08-08T09:24:14.735Z,7.43
2018-08-08T09:26:42.226Z,7.83
2018-08-08T09:29:09.767Z,7.80
2018-08-08T09:31:38.046Z,7.50
2018-08-08T09:34:06.480Z,7.80
2018-08-08T09:36:34.695Z,7.50
2018-08-08T09:39:02.391Z,7.60
2018-08-08T09:41:30.611Z,7.37
2018-08-08T09:43:58.538Z,7.80
2018-08-08T09:46:26.079Z,7.83
2018-08-08T09:48:54.341Z,8.40
2018-08-08T09:51:22.195Z,7.90
2018-08-08T09:53:49.750Z,7.43
2018-08-08T09:56:17.281Z,8.20
2018-08-08T09:58:44.819Z,6.97
2018-08-08T10:01:18.011Z,6.77
2018-08-08T10:03:51.707Z,6.70
2018-08-08T10:06:28.260Z,6.70
2018-08-08T10:08:55.771Z,7.73
2018-08-08T10:11:23.986Z,7.33
2018-08-08T10:13:52.075Z,7.47
2018-08-08T10:16:20.058Z,7.60
2018-08-08T10:18:48.323Z,7.80
2018-08-08T10:21:16.552Z,7.10
2018-08-08T10:23:44.467Z,7.30
2018-08-08T10:26:12.347Z,6.77
2018-08-08T10:28:40.275Z,6.50
2018-08-08T10:31:09.251Z,7.90
2018-08-08T10:33:37.316Z,7.20
2018-08-08T10:36:06.192Z,8.60
2018-08-08T10:38:33.743Z,7.57
2018-08-08T10:41:01.472Z,7.80
2018-08-08T10:43:29.003Z,7.20
2018-08-08T10:45:56.524Z,8.00
2018-08-08T10:48:24.638Z,7.63
2018-08-08T10:50:53.086Z,7.00
2018-08-08T10:53:20.572Z,7.80
2018-08-08T10:55:48.154Z,7.07
2018-08-08T10:58:15.992Z,7.50
2018-08-08T11:00:44.773Z,7.03
2018-08-08T11:03:12.348Z,7.33
2018-08-08T11:05:39.890Z,7.50
2018-08-08T11:08:07.661Z,6.93
2018-08-08T11:10:35.605Z,7.57
2018-08-08T11:13:03.672Z,7.43
2018-08-08T11:15:31.545Z,7.07
2018-08-08T11:17:59.557Z,8.10
2018-08-08T11:20:27.138Z,10.23
2018-08-08T11:22:55.139Z,8.37
2018-08-08T11:25:22.660Z,7.30
2018-08-08T11:27:50.610Z,7.87
2018-08-08T11:30:18.655Z,8.13
2018-08-08T11:32:46.548Z,7.10
2018-08-08T11:35:14.047Z,7.40
2018-08-08T11:37:42.002Z,7.00
2018-08-08T11:40:09.956Z,7.07
2018-08-08T11:42:37.830Z,7.57
2018-08-08T11:45:06.204Z,7.83
2018-08-08T11:47:34.675Z,7.87
2018-08-08T11:50:02.811Z,6.50
2018-08-08T11:52:31.564Z,7.57
2018-08-08T11:54:59.415Z,7.67
2018-08-08T11:57:28.187Z,7.30
2018-08-08T11:59:56.080Z,6.47
2018-08-08T12:02:24.100Z,7.33
2018-08-08T12:04:51.972Z,7.90
2018-08-08T12:07:19.839Z,7.47
2018-08-08T12:09:47.363Z,7.20
2018-08-08T12:12:14.963Z,7.87
2018-08-08T12:14:43.667Z,7.60
2018-08-08T12:17:12.353Z,7.00
2018-08-08T12:19:40.504Z,7.00
2018-08-08T12:22:08.368Z,7.10
2018-08-08T12:24:36.400Z,6.83
2018-08-08T12:27:04.320Z,7.20
2018-08-08T12:29:32.284Z,7.20
2018-08-08T12:31:59.817Z,7.93
2018-08-08T12:34:27.358Z,6.30
2018-08-08T12:36:55.147Z,6.70
2018-08-08T12:39:22.741Z,7.00
2018-08-08T12:41:50.251Z,7.00
2018-08-08T12:44:18.069Z,7.23
2018-08-08T12:46:45.660Z,6.97
2018-08-08T12:49:13.538Z,6.37
2018-08-08T12:51:41.504Z,6.33
2018-08-08T12:54:09.744Z,7.10
2018-08-08T12:56:37.648Z,6.73
2018-08-08T12:59:05.688Z,7.27
2018-08-08T13:01:33.175Z,7.20
2018-08-08T13:04:00.733Z,6.90
2018-08-08T13:06:28.464Z,6.10
2018-08-08T13:08:55.982Z,7.30
2018-08-08T13:11:24.291Z,6.53
2018-08-08T13:13:52.971Z,7.40
2018-08-08T13:16:20.533Z,7.20
2018-08-08T13:18:48.451Z,7.20
2018-08-08T13:21:16.751Z,6.80
2018-08-08T13:23:44.387Z,6.57
2018-08-08T13:26:12.207Z,6.33
2018-08-08T13:28:40.503Z,6.87
2018-08-08T13:31:08.012Z,7.50
2018-08-08T13:33:36.712Z,8.13
2018-08-08T13:36:04.744Z,7.30
2018-08-08T13:38:32.270Z,6.53
2018-08-08T13:41:00.164Z,7.17
2018-08-08T13:43:28.106Z,7.00
2018-08-08T13:45:56.004Z,7.40
2018-08-08T13:48:24.020Z,6.60
2018-08-08T13:50:52.194Z,6.47
2018-08-08T13:53:19.714Z,6.97
2018-08-08T13:55:47.688Z,7.70
2018-08-08T13:58:15.788Z,7.10
2018-08-08T14:00:43.820Z,7.40
2018-08-08T14:03:11.376Z,6.40
2018-08-08T14:05:38.887Z,6.63
2018-08-08T14:08:07.204Z,7.00
2018-08-08T14:10:35.211Z,6.53
2018-08-08T14:13:02.728Z,6.50
2018-08-08T14:15:30.700Z,6.53
2018-08-08T14:17:59.092Z,6.80
2018-08-08T14:20:26.613Z,6.40
2018-08-08T14:22:54.536Z,6.87
2018-08-08T14:25:22.359Z,6.80
2018-08-08T14:27:49.867Z,6.47
2018-08-08T14:30:17.387Z,7.10
2018-08-08T14:32:45.457Z,6.77
2018-08-08T14:35:12.979Z,6.40
2018-08-08T14:37:41.101Z,7.20
2018-08-08T14:40:08.695Z,7.17
2018-08-08T14:42:36.215Z,6.60
2018-08-08T14:45:04.381Z,6.33
2018-08-08T14:47:32.478Z,6.03
2018-08-08T14:51:30.135Z,6.43
2018-08-08T14:53:58.845Z,6.77
2018-08-08T14:56:26.371Z,6.87
2018-08-08T14:58:53.916Z,5.80
2018-08-08T15:01:21.499Z,6.07
2018-08-08T15:03:49.547Z,5.87
2018-08-08T15:06:18.299Z,6.10
2018-08-08T15:08:45.816Z,5.73
2018-08-08T15:11:13.341Z,5.43
2018-08-08T15:13:40.856Z,5.50
2018-08-08T15:16:08.862Z,5.70
2018-08-08T15:18:36.725Z,5.57
2018-08-08T15:21:04.822Z,5.43
2018-08-08T15:23:32.983Z,5.73
2018-08-08T15:26:00.524Z,5.20
2018-08-08T15:28:28.045Z,5.67
2018-08-08T15:30:55.604Z,6.00
2018-08-08T15:33:23.136Z,5.60
2018-08-08T15:35:51.023Z,5.50
2018-08-08T15:38:19.292Z,5.87
2018-08-08T15:40:46.844Z,6.23
2018-08-08T15:43:14.388Z,5.80
2018-08-08T15:45:41.972Z,5.30
2018-08-08T15:48:09.903Z,5.90
2018-08-08T15:50:38.450Z,5.20
2018-08-08T15:53:06.648Z,5.50
2018-08-08T15:55:34.704Z,5.70
2018-08-08T15:58:02.780Z,5.30
2018-08-08T16:00:30.732Z,4.83
2018-08-08T16:02:58.323Z,4.40
2018-08-08T16:05:26.648Z,4.17
2018-08-08T16:07:54.211Z,4.60
2018-08-08T16:10:21.876Z,5.27
2018-08-08T16:12:49.580Z,4.93
2018-08-08T16:15:17.437Z,5.07
2018-08-08T16:17:44.958Z,5.13
2018-08-08T16:20:12.863Z,5.50
2018-08-08T16:22:40.722Z,5.00
2018-08-08T16:25:09.228Z,4.87
2018-08-08T16:27:37.157Z,4.90
2018-08-08T16:30:05.967Z,4.90
2018-08-08T16:32:33.493Z,5.50
2018-08-08T16:35:01.538Z,4.80
2018-08-08T16:37:30.051Z,5.53
2018-08-08T16:39:57.596Z,5.47
2018-08-08T16:42:25.138Z,5.80
2018-08-08T16:44:52.839Z,5.83
2018-08-08T16:47:21.743Z,5.70
2018-08-08T16:49:49.956Z,6.03
2018-08-08T16:52:17.932Z,5.87
2018-08-08T16:54:46.091Z,6.17
2018-08-08T16:57:14.039Z,5.97
2018-08-08T16:59:41.555Z,6.77
2018-08-08T17:02:09.424Z,5.57
2018-08-08T17:04:37.940Z,6.73
2018-08-08T17:07:05.778Z,6.77
2018-08-08T17:09:33.266Z,7.13
2018-08-08T17:12:01.312Z,6.40
2018-08-08T17:14:29.272Z,6.37
2018-08-08T17:16:57.618Z,6.80
2018-08-08T17:19:25.627Z,6.47
2018-08-08T17:21:53.631Z,6.93
2018-08-08T17:24:21.424Z,8.30
2018-08-08T17:26:48.958Z,7.17
2018-08-08T17:29:17.023Z,7.03
2018-08-08T17:31:44.580Z,5.83
2018-08-08T17:34:12.594Z,7.30
2018-08-08T17:36:40.171Z,7.80
2018-08-08T17:39:08.691Z,8.00
2018-08-08T17:41:36.336Z,7.60
2018-08-08T17:44:05.162Z,8.03
2018-08-08T17:46:33.181Z,7.70
2018-08-08T17:49:01.272Z,7.30
2018-08-08T17:51:29.220Z,7.60
2018-08-08T17:53:56.748Z,9.00
2018-08-08T17:56:24.702Z,8.20
2018-08-08T17:58:52.573Z,6.57
2018-08-08T18:01:20.460Z,7.43
2018-08-08T18:03:48.029Z,8.47
2018-08-08T18:06:15.976Z,7.60
2018-08-08T18:08:43.541Z,8.50
2018-08-08T18:11:11.055Z,8.03
2018-08-08T18:13:39.023Z,8.23
2018-08-08T18:16:06.900Z,8.23
2018-08-08T18:18:34.967Z,7.50
2018-08-08T18:21:02.784Z,9.17
2018-08-08T18:23:30.765Z,7.70
2018-08-08T18:25:58.284Z,6.77
2018-08-08T18:28:26.121Z,6.90
2018-08-08T18:30:54.025Z,7.07
2018-08-08T18:33:21.528Z,6.57
2018-08-08T18:35:49.964Z,7.20
2018-08-08T18:38:17.595Z,6.60
2018-08-08T18:40:45.269Z,5.80
2018-08-08T18:43:13.659Z,5.10
2018-08-08T18:45:41.196Z,6.90
2018-08-08T18:48:08.827Z,7.53
2018-08-08T18:50:36.671Z,8.50
2018-08-08T18:53:04.847Z,7.57
2018-08-08T18:55:32.372Z,7.17
2018-08-08T18:58:00.444Z,6.90
2018-08-08T19:00:29.179Z,5.20
2018-08-08T19:02:56.698Z,5.67
2018-08-08T19:05:24.536Z,5.17
2018-08-08T19:07:52.704Z,4.70
2018-08-08T19:10:20.218Z,4.13
2018-08-08T19:12:48.421Z,4.80
2018-08-08T19:15:16.234Z,5.03
2018-08-08T19:17:44.674Z,4.10
2018-08-08T19:20:12.605Z,4.63
2018-08-08T19:22:41.039Z,4.57
2018-08-08T19:25:09.180Z,4.47
2018-08-08T19:27:37.566Z,6.07
2018-08-08T19:30:05.940Z,4.87
2018-08-08T19:32:33.684Z,4.90
2018-08-08T19:35:01.739Z,4.60
2018-08-08T19:37:29.504Z,5.50
2018-08-08T19:39:57.492Z,4.47
2018-08-08T19:42:25.318Z,4.60
2018-08-08T19:44:53.200Z,5.67
2018-08-08T19:47:20.796Z,5.13
2018-08-08T19:49:48.662Z,5.33
2018-08-08T19:52:16.513Z,5.60
2018-08-08T19:54:44.940Z,5.70
2018-08-08T19:57:12.726Z,4.83
2018-08-08T19:59:40.928Z,5.07
2018-08-08T20:02:09.157Z,5.30
2018-08-08T20:04:36.823Z,5.70
2018-08-08T20:07:04.648Z,5.43
2018-08-08T20:09:32.527Z,5.40
2018-08-08T20:12:00.692Z,5.20
2018-08-08T20:14:28.960Z,4.77
2018-08-08T20:16:56.608Z,5.70
2018-08-08T20:19:25.440Z,5.77
2018-08-08T20:21:53.693Z,5.63
2018-08-08T20:24:22.332Z,5.90
2018-08-08T20:26:50.182Z,5.63
2018-08-08T20:29:18.413Z,6.97
2018-08-08T20:31:46.008Z,5.50
2018-08-08T20:34:13.895Z,5.83
2018-08-08T20:36:41.439Z,6.03
2018-08-08T20:39:10.055Z,5.40
2018-08-08T20:41:38.037Z,5.97
2018-08-08T20:44:06.299Z,6.03
2018-08-08T20:46:33.851Z,7.00
2018-08-08T20:49:02.284Z,5.70
2018-08-08T20:51:30.839Z,5.70
2018-08-08T20:53:58.810Z,5.37
2018-08-08T20:56:26.856Z,5.80
2018-08-08T20:58:54.767Z,5.47
2018-08-08T21:01:22.274Z,5.50
2018-08-08T21:03:49.775Z,4.83
2018-08-08T21:06:20.492Z,6.00
2018-08-08T21:08:48.412Z,5.93
2018-08-08T21:11:15.948Z,6.40
2018-08-08T21:13:43.484Z,6.50
2018-08-08T21:16:11.412Z,5.90
2018-08-08T21:18:39.519Z,6.00
2018-08-08T21:21:08.244Z,6.87
2018-08-08T21:23:36.359Z,6.13
2018-08-08T21:26:03.988Z,5.30
2018-08-08T21:28:31.500Z,6.13
2018-08-08T21:30:59.071Z,6.90
2018-08-08T21:33:26.584Z,5.43
2018-08-08T21:35:55.255Z,5.80
2018-08-08T21:38:24.636Z,4.50
2018-08-08T21:40:52.565Z,5.70
2018-08-08T21:43:22.011Z,5.20
2018-08-08T21:45:51.042Z,4.67
2018-08-08T21:48:18.943Z,4.07
2018-08-08T21:50:46.815Z,5.23
2018-08-08T21:53:16.724Z,4.17
2018-08-08T21:55:56.071Z,4.03
2018-08-08T21:58:35.316Z,5.10
2018-08-08T22:01:14.874Z,3.87
2018-08-08T22:03:54.988Z,4.33
2018-08-08T22:06:34.897Z,5.13
2018-08-08T22:09:13.948Z,4.53
2018-08-08T22:11:56.084Z,5.13
2018-08-08T22:14:35.372Z,5.53
2018-08-08T22:17:14.199Z,4.40
2018-08-08T22:19:44.727Z,5.10
2018-08-08T22:22:12.898Z,4.60
2018-08-08T22:24:40.713Z,4.63
2018-08-08T22:27:08.311Z,4.20
2018-08-08T22:29:36.207Z,4.10
2018-08-08T22:32:04.260Z,4.30
2018-08-08T22:34:31.765Z,4.53
2018-08-08T22:36:59.311Z,3.70
2018-08-08T22:39:27.261Z,5.07
2018-08-08T22:41:55.836Z,5.30
2018-08-08T22:44:23.944Z,4.73
2018-08-08T22:46:51.452Z,5.23
2018-08-08T22:49:19.564Z,4.60
2018-08-08T22:51:47.549Z,5.10
2018-08-08T22:54:15.117Z,6.93
2018-08-08T22:56:42.636Z,6.00
2018-08-08T22:59:10.662Z,5.67
2018-08-08T23:01:38.724Z,5.90
2018-08-08T23:04:06.700Z,5.20
2018-08-08T23:06:34.252Z,5.10
2018-08-08T23:09:01.769Z,5.33
2018-08-08T23:11:29.356Z,6.17
2018-08-08T23:13:57.636Z,6.17
2018-08-08T23:16:25.228Z,6.33
2018-08-08T23:18:53.309Z,5.90
2018-08-08T23:21:21.292Z,5.53
2018-08-08T23:23:49.188Z,4.70
2018-08-08T23:26:16.688Z,3.80
2018-08-08T23:28:44.175Z,4.53
2018-08-08T23:31:12.554Z,4.50
2018-08-08T23:33:40.049Z,3.83
2018-08-08T23:36:08.100Z,4.43
2018-08-08T23:38:36.859Z,3.90
2018-08-08T23:41:04.744Z,5.07
2018-08-08T23:43:32.263Z,3.60
2018-08-08T23:46:00.538Z,3.90
2018-08-08T23:48:28.070Z,4.30
2018-08-08T23:50:55.954Z,3.40
2018-08-08T23:53:24.052Z,3.50
2018-08-08T23:55:51.540Z,3.00
2018-08-08T23:58:19.081Z,4.20
